createdAt,value
2023-05-13T00:00:41.703Z,0.00
2023-05-13T00:01:41.656Z,0.00
2023-05-13T00:02:41.763Z,0.00
2023-05-13T00:03:41.851Z,0.00
2023-05-13T00:04:41.626Z,0.00
2023-05-13T00:05:41.661Z,0.00
2023-05-13T00:06:41.688Z,0.00
2023-05-13T00:07:41.675Z,0.00
2023-05-13T00:08:41.588Z,0.00
2023-05-13T00:09:41.573Z,0.00
2023-05-13T00:10:41.557Z,0.00
2023-05-13T00:11:41.545Z,0.00
2023-05-13T00:12:41.548Z,0.00
2023-05-13T00:13:41.552Z,0.00
2023-05-13T00:14:41.539Z,0.00
2023-05-13T00:15:41.492Z,0.00
2023-05-13T00:16:41.571Z,0.00
2023-05-13T00:17:41.549Z,0.00
2023-05-13T00:18:41.571Z,0.00
2023-05-13T00:19:41.473Z,0.00
2023-05-13T00:20:41.468Z,0.00
2023-05-13T00:21:41.463Z,0.00
2023-05-13T00:22:41.445Z,0.00
2023-05-13T00:23:41.420Z,0.00
2023-05-13T00:24:41.427Z,0.00
2023-05-13T00:25:41.437Z,0.00
2023-05-13T00:26:41.395Z,0.00
2023-05-13T00:27:41.379Z,0.00
2023-05-13T00:28:41.352Z,0.00
2023-05-13T00:29:41.349Z,0.00
2023-05-13T00:30:41.334Z,0.00
2023-05-13T00:31:41.395Z,0.00
2023-05-13T00:32:41.386Z,0.00
2023-05-13T00:33:41.428Z,0.00
2023-05-13T00:34:41.288Z,0.00
2023-05-13T00:35:41.289Z,0.00
2023-05-13T00:36:41.270Z,0.00
2023-05-13T00:37:41.251Z,0.00
2023-05-13T00:38:41.260Z,0.00
2023-05-13T00:39:41.239Z,0.00
2023-05-13T00:40:41.220Z,0.00
2023-05-13T00:41:41.221Z,0.00
2023-05-13T00:42:41.201Z,0.00
2023-05-13T00:43:41.194Z,0.00
2023-05-13T00:44:41.197Z,0.00
2023-05-13T00:45:41.259Z,0.00
2023-05-13T00:46:41.189Z,0.00
2023-05-13T00:47:41.212Z,0.00
2023-05-13T00:48:41.165Z,0.00
2023-05-13T00:49:41.139Z,0.00
2023-05-13T00:50:41.122Z,0.00
2023-05-13T00:51:41.138Z,0.00
2023-05-13T00:52:41.102Z,0.00
2023-05-13T00:53:41.114Z,0.00
2023-05-13T00:54:41.086Z,0.00
2023-05-13T00:55:41.074Z,0.00
2023-05-13T00:56:41.078Z,0.00
2023-05-13T00:57:41.038Z,0.00
2023-05-13T00:58:41.035Z,0.00
2023-05-13T00:59:41.030Z,0.00
2023-05-13T01:00:41.016Z,0.00
2023-05-13T01:01:41.061Z,0.00
2023-05-13T01:02:41.042Z,0.00
2023-05-13T01:03:41.138Z,0.00
2023-05-13T01:04:40.973Z,0.00
2023-05-13T01:05:40.979Z,0.00
2023-05-13T01:06:40.966Z,0.00
2023-05-13T01:07:40.918Z,0.00
2023-05-13T01:08:40.921Z,0.00
2023-05-13T01:09:40.919Z,0.00
2023-05-13T01:10:40.912Z,0.00
2023-05-13T01:11:40.902Z,0.00
2023-05-13T01:12:40.893Z,0.00
2023-05-13T01:13:40.859Z,0.00
2023-05-13T01:14:40.855Z,0.00
2023-05-13T01:15:40.851Z,0.00
2023-05-13T01:16:40.897Z,0.00
2023-05-13T01:17:40.878Z,0.00
2023-05-13T01:18:40.863Z,0.00
2023-05-13T01:19:40.810Z,0.00
2023-05-13T01:20:40.798Z,0.00
2023-05-13T01:21:40.766Z,0.00
2023-05-13T01:22:40.780Z,0.00
2023-05-13T01:23:40.759Z,0.00
2023-05-13T01:24:40.818Z,0.00
2023-05-13T01:25:40.732Z,0.00
2023-05-13T01:26:40.753Z,0.00
2023-05-13T01:27:40.726Z,0.00
2023-05-13T01:28:40.716Z,0.00
2023-05-13T01:29:40.711Z,0.00
2023-05-13T01:30:40.694Z,0.00
2023-05-13T01:31:40.720Z,0.00
2023-05-13T01:32:40.712Z,0.00
2023-05-13T01:33:40.661Z,0.00
2023-05-13T01:34:40.637Z,0.00
2023-05-13T01:35:40.620Z,0.00
2023-05-13T01:36:40.627Z,0.00
2023-05-13T01:37:40.616Z,0.00
2023-05-13T01:38:40.606Z,0.00
2023-05-13T01:39:40.594Z,0.00
2023-05-13T01:40:40.584Z,0.00
2023-05-13T01:41:40.565Z,0.00
2023-05-13T01:42:40.583Z,0.00
2023-05-13T01:43:40.566Z,0.00
2023-05-13T01:44:40.529Z,0.00
2023-05-13T01:45:40.522Z,0.00
2023-05-13T01:46:40.610Z,0.00
2023-05-13T01:47:40.579Z,0.00
2023-05-13T01:48:40.471Z,0.00
2023-05-13T01:49:40.452Z,0.00
2023-05-13T01:50:40.462Z,0.00
2023-05-13T01:51:40.424Z,0.00
2023-05-13T01:52:40.428Z,0.00
2023-05-13T01:53:40.422Z,0.00
2023-05-13T01:54:40.414Z,0.00
2023-05-13T01:55:40.409Z,0.00
2023-05-13T01:56:40.389Z,0.00
2023-05-13T01:57:40.398Z,0.00
2023-05-13T01:58:40.354Z,0.00
2023-05-13T01:59:40.373Z,0.00
2023-05-13T02:00:40.337Z,0.00
2023-05-13T02:01:40.413Z,0.00
2023-05-13T02:02:40.391Z,0.00
2023-05-13T02:03:40.393Z,0.00
2023-05-13T02:04:40.285Z,0.00
2023-05-13T02:05:40.305Z,0.00
2023-05-13T02:06:40.268Z,0.00
2023-05-13T02:07:40.265Z,0.00
2023-05-13T02:08:40.246Z,0.00
2023-05-13T02:09:40.236Z,0.00
2023-05-13T02:10:40.236Z,0.00
2023-05-13T02:11:40.215Z,0.00
2023-05-13T02:12:40.203Z,0.00
2023-05-13T02:13:40.217Z,0.00
2023-05-13T02:14:40.187Z,0.00
2023-05-13T02:15:40.174Z,0.00
2023-05-13T02:16:40.232Z,0.00
2023-05-13T02:17:40.176Z,0.00
2023-05-13T02:18:40.192Z,0.00
2023-05-13T02:19:40.175Z,0.00
2023-05-13T02:20:40.131Z,0.00
2023-05-13T02:21:40.106Z,0.00
2023-05-13T02:22:40.105Z,0.00
2023-05-13T02:23:40.113Z,0.00
2023-05-13T02:24:40.081Z,0.00
2023-05-13T02:25:40.068Z,0.00
2023-05-13T02:26:40.067Z,0.00
2023-05-13T02:27:40.043Z,0.00
2023-05-13T02:28:40.038Z,0.00
2023-05-13T02:29:40.103Z,0.00
2023-05-13T02:30:40.015Z,0.00
2023-05-13T02:31:40.042Z,0.00
2023-05-13T02:32:40.023Z,0.00
2023-05-13T02:33:39.983Z,0.00
2023-05-13T02:34:40.040Z,0.00
2023-05-13T02:35:39.962Z,0.00
2023-05-13T02:36:39.950Z,0.00
2023-05-13T02:37:39.939Z,0.00
2023-05-13T02:38:39.924Z,0.00
2023-05-13T02:39:39.938Z,0.00
2023-05-13T02:40:39.919Z,0.00
2023-05-13T02:41:39.897Z,0.00
2023-05-13T02:42:39.897Z,0.00
2023-05-13T02:43:39.864Z,0.00
2023-05-13T02:44:39.857Z,0.00
2023-05-13T02:45:39.910Z,0.00
2023-05-13T02:46:39.851Z,0.00
2023-05-13T02:47:39.871Z,0.00
2023-05-13T02:48:39.832Z,0.00
2023-05-13T02:49:39.832Z,0.00
2023-05-13T02:50:39.867Z,0.00
2023-05-13T02:51:39.796Z,0.00
2023-05-13T02:52:39.772Z,0.00
2023-05-13T02:53:39.766Z,0.00
2023-05-13T02:54:39.836Z,0.00
2023-05-13T02:55:39.772Z,0.00
2023-05-13T02:56:39.932Z,0.00
2023-05-13T02:57:39.727Z,0.00
2023-05-13T02:58:39.718Z,0.00
2023-05-13T02:59:39.716Z,0.00
2023-05-13T03:00:39.718Z,0.00
2023-05-13T03:01:39.780Z,0.00
2023-05-13T03:02:39.712Z,0.00
2023-05-13T03:03:39.750Z,0.00
2023-05-13T03:04:39.646Z,0.00
2023-05-13T03:05:39.654Z,0.00
2023-05-13T03:06:39.635Z,0.00
2023-05-13T03:07:39.615Z,0.00
2023-05-13T03:08:39.612Z,0.00
2023-05-13T03:09:39.592Z,0.00
2023-05-13T03:10:39.617Z,0.00
2023-05-13T03:11:39.593Z,0.00
2023-05-13T03:12:39.566Z,0.00
2023-05-13T03:13:39.570Z,0.00
2023-05-13T03:14:39.534Z,0.00
2023-05-13T03:15:40.966Z,0.00
2023-05-13T03:16:39.575Z,0.00
2023-05-13T03:17:39.549Z,0.00
2023-05-13T03:18:39.547Z,0.00
2023-05-13T03:19:39.486Z,0.00
2023-05-13T03:20:39.484Z,0.00
2023-05-13T03:21:39.545Z,4.00
2023-05-13T03:22:39.473Z,4.00
2023-05-13T03:23:39.446Z,0.00
2023-05-13T03:24:39.437Z,0.00
2023-05-13T03:25:39.425Z,4.00
2023-05-13T03:26:39.437Z,4.00
2023-05-13T03:27:39.400Z,4.00
2023-05-13T03:28:39.400Z,4.00
2023-05-13T03:29:39.387Z,8.00
2023-05-13T03:30:40.106Z,8.00
2023-05-13T03:31:39.827Z,8.00
2023-05-13T03:32:39.396Z,8.00
2023-05-13T03:33:39.367Z,8.00
2023-05-13T03:34:40.046Z,12.00
2023-05-13T03:35:39.349Z,12.00
2023-05-13T03:36:39.302Z,16.00
2023-05-13T03:37:39.287Z,16.00
2023-05-13T03:38:39.291Z,20.00
2023-05-13T03:39:39.292Z,24.00
2023-05-13T03:40:39.249Z,28.00
2023-05-13T03:41:39.254Z,32.00
2023-05-13T03:42:39.237Z,32.00
2023-05-13T03:43:39.255Z,40.00
2023-05-13T03:44:39.214Z,40.00
2023-05-13T03:45:39.210Z,44.00
2023-05-13T03:46:39.274Z,44.00
2023-05-13T03:47:39.259Z,52.00
2023-05-13T03:48:39.172Z,60.00
2023-05-13T03:49:39.156Z,64.00
2023-05-13T03:50:39.150Z,72.00
2023-05-13T03:51:39.165Z,76.00
2023-05-13T03:52:39.156Z,80.00
2023-05-13T03:53:39.111Z,84.00
2023-05-13T03:54:39.114Z,88.00
2023-05-13T03:55:39.092Z,88.00
2023-05-13T03:56:39.094Z,88.00
2023-05-13T03:57:39.084Z,92.00
2023-05-13T03:58:39.072Z,88.00
2023-05-13T03:59:39.050Z,88.00
2023-05-13T04:00:39.069Z,88.00
2023-05-13T04:01:39.098Z,88.00
2023-05-13T04:02:39.059Z,100.00
2023-05-13T04:03:39.011Z,120.00
2023-05-13T04:04:39.028Z,128.00
2023-05-13T04:05:39.038Z,128.00
2023-05-13T04:06:38.985Z,136.00
2023-05-13T04:07:39.194Z,144.00
2023-05-13T04:08:38.960Z,140.00
2023-05-13T04:09:38.990Z,132.00
2023-05-13T04:10:38.946Z,140.00
2023-05-13T04:11:38.918Z,152.00
2023-05-13T04:12:38.925Z,160.00
2023-05-13T04:13:38.902Z,176.00
2023-05-13T04:14:38.910Z,192.00
2023-05-13T04:15:38.872Z,208.00
2023-05-13T04:16:38.921Z,216.00
2023-05-13T04:17:38.920Z,216.00
2023-05-13T04:18:38.989Z,216.00
2023-05-13T04:19:38.853Z,228.00
2023-05-13T04:20:38.855Z,232.00
2023-05-13T04:21:38.811Z,240.00
2023-05-13T04:22:38.808Z,248.00
2023-05-13T04:23:38.806Z,244.00
2023-05-13T04:24:38.808Z,240.00
2023-05-13T04:25:39.497Z,240.00
2023-05-13T04:26:38.802Z,232.00
2023-05-13T04:27:39.807Z,244.00
2023-05-13T04:28:38.759Z,228.00
2023-05-13T04:29:39.092Z,208.00
2023-05-13T04:30:38.729Z,204.00
2023-05-13T04:31:39.482Z,204.00
2023-05-13T04:32:38.727Z,208.00
2023-05-13T04:33:39.387Z,228.00
2023-05-13T04:34:38.700Z,248.00
2023-05-13T04:35:39.693Z,268.00
2023-05-13T04:36:38.677Z,272.00
2023-05-13T04:37:38.638Z,280.00
2023-05-13T04:38:38.653Z,288.00
2023-05-13T04:39:38.613Z,276.00
2023-05-13T04:40:38.614Z,272.00
2023-05-13T04:41:38.593Z,284.00
2023-05-13T04:42:38.605Z,296.00
2023-05-13T04:43:38.592Z,280.00
2023-05-13T04:44:38.568Z,268.00
2023-05-13T04:45:38.550Z,256.00
2023-05-13T04:46:38.559Z,256.00
2023-05-13T04:47:38.565Z,260.00
2023-05-13T04:48:38.535Z,280.00
2023-05-13T04:49:38.503Z,304.00
2023-05-13T04:50:38.507Z,320.00
2023-05-13T04:51:38.501Z,332.00
2023-05-13T04:52:38.482Z,344.00
2023-05-13T04:53:38.467Z,356.00
2023-05-13T04:54:38.473Z,372.00
2023-05-13T04:55:38.449Z,388.00
2023-05-13T04:56:38.440Z,416.00
2023-05-13T04:57:38.430Z,416.00
2023-05-13T04:58:38.415Z,420.00
2023-05-13T04:59:38.417Z,432.00
2023-05-13T05:00:38.393Z,440.00
2023-05-13T05:01:38.435Z,440.00
2023-05-13T05:02:38.413Z,432.00
2023-05-13T05:03:38.408Z,428.00
2023-05-13T05:04:38.355Z,444.00
2023-05-13T05:05:38.360Z,456.00
2023-05-13T05:06:38.334Z,464.00
2023-05-13T05:07:38.311Z,456.00
2023-05-13T05:08:38.310Z,440.00
2023-05-13T05:09:38.291Z,436.00
2023-05-13T05:10:38.300Z,440.00
2023-05-13T05:11:38.289Z,452.00
2023-05-13T05:12:38.293Z,468.00
2023-05-13T05:13:38.246Z,484.00
2023-05-13T05:14:38.250Z,492.00
2023-05-13T05:15:38.226Z,500.00
2023-05-13T05:16:38.234Z,500.00
2023-05-13T05:17:38.338Z,516.00
2023-05-13T05:18:38.310Z,552.00
2023-05-13T05:19:38.180Z,588.00
2023-05-13T05:20:38.187Z,604.00
2023-05-13T05:21:38.168Z,596.00
2023-05-13T05:22:38.161Z,584.00
2023-05-13T05:23:38.149Z,588.00
2023-05-13T05:24:38.144Z,612.00
2023-05-13T05:25:38.144Z,648.00
2023-05-13T05:26:38.116Z,684.00
2023-05-13T05:27:38.097Z,712.00
2023-05-13T05:28:38.102Z,704.00
2023-05-13T05:29:38.072Z,700.00
2023-05-13T05:30:38.071Z,692.00
2023-05-13T05:31:38.138Z,696.00
2023-05-13T05:32:38.136Z,732.00
2023-05-13T05:33:38.055Z,756.00
2023-05-13T05:34:38.041Z,776.00
2023-05-13T05:35:38.014Z,740.00
2023-05-13T05:36:38.466Z,680.00
2023-05-13T05:37:37.996Z,632.00
2023-05-13T05:38:38.013Z,600.00
2023-05-13T05:39:37.972Z,604.00
2023-05-13T05:40:37.967Z,600.00
2023-05-13T05:41:37.946Z,588.00
2023-05-13T05:42:37.943Z,592.00
2023-05-13T05:43:37.929Z,580.00
2023-05-13T05:44:37.916Z,580.00
2023-05-13T05:45:37.958Z,600.00
2023-05-13T05:46:37.893Z,628.00
2023-05-13T05:47:37.980Z,648.00
2023-05-13T05:48:37.898Z,636.00
2023-05-13T05:49:37.886Z,612.00
2023-05-13T05:50:37.852Z,596.00
2023-05-13T05:51:37.862Z,604.00
2023-05-13T05:52:37.842Z,612.00
2023-05-13T05:53:37.916Z,636.00
2023-05-13T05:54:37.822Z,736.00
2023-05-13T05:55:37.793Z,816.00
2023-05-13T05:56:37.789Z,868.00
2023-05-13T05:57:37.772Z,944.00
2023-05-13T05:58:37.787Z,888.00
2023-05-13T05:59:37.762Z,852.00
2023-05-13T06:00:37.764Z,800.00
2023-05-13T06:01:37.726Z,772.00
2023-05-13T06:02:37.837Z,776.00
2023-05-13T06:03:37.922Z,820.00
2023-05-13T06:04:37.806Z,876.00
2023-05-13T06:05:37.690Z,932.00
2023-05-13T06:06:37.853Z,984.00
2023-05-13T06:07:37.665Z,1000.00
2023-05-13T06:08:37.667Z,1016.00
2023-05-13T06:09:37.641Z,984.00
2023-05-13T06:10:37.639Z,984.00
2023-05-13T06:11:37.643Z,916.00
2023-05-13T06:12:37.614Z,804.00
2023-05-13T06:13:37.608Z,776.00
2023-05-13T06:14:37.605Z,880.00
2023-05-13T06:15:37.669Z,952.00
2023-05-13T06:16:37.588Z,956.00
2023-05-13T06:17:37.588Z,908.00
2023-05-13T06:18:37.604Z,892.00
2023-05-13T06:19:37.563Z,960.00
2023-05-13T06:20:37.536Z,1028.00
2023-05-13T06:21:37.513Z,1044.00
2023-05-13T06:22:37.511Z,1004.00
2023-05-13T06:23:37.492Z,936.00
2023-05-13T06:24:37.488Z,904.00
2023-05-13T06:25:37.470Z,956.00
2023-05-13T06:26:37.478Z,1044.00
2023-05-13T06:27:37.451Z,1052.00
2023-05-13T06:28:37.447Z,1092.00
2023-05-13T06:29:37.441Z,1168.00
2023-05-13T06:30:37.455Z,1200.00
2023-05-13T06:31:37.442Z,1168.00
2023-05-13T06:32:39.376Z,1132.00
2023-05-13T06:33:37.469Z,1172.00
2023-05-13T06:34:37.378Z,1216.00
2023-05-13T06:35:37.375Z,1256.00
2023-05-13T06:36:37.362Z,1352.00
2023-05-13T06:37:37.348Z,1452.00
2023-05-13T06:38:37.350Z,1564.00
2023-05-13T06:39:37.318Z,1740.00
2023-05-13T06:40:37.333Z,1828.00
2023-05-13T06:41:37.301Z,1828.00
2023-05-13T06:42:37.291Z,1876.00
2023-05-13T06:43:37.294Z,2028.00
2023-05-13T06:44:37.271Z,2088.00
2023-05-13T06:45:37.269Z,2060.00
2023-05-13T06:46:37.275Z,2172.00
2023-05-13T06:47:37.246Z,2316.00
2023-05-13T06:48:37.253Z,2460.00
2023-05-13T06:49:37.213Z,2612.00
2023-05-13T06:50:37.236Z,2664.00
2023-05-13T06:51:37.184Z,2556.00
2023-05-13T06:52:37.550Z,2444.00
2023-05-13T06:53:37.180Z,2356.00
2023-05-13T06:54:37.168Z,2248.00
2023-05-13T06:55:37.163Z,2164.00
2023-05-13T06:56:37.157Z,2200.00
2023-05-13T06:57:42.928Z,2232.00
2023-05-13T06:58:38.123Z,2200.00
2023-05-13T06:59:37.126Z,2204.00
2023-05-13T07:00:37.136Z,2228.00
2023-05-13T07:01:37.160Z,2208.00
2023-05-13T07:02:37.115Z,2152.00
2023-05-13T07:03:37.083Z,2144.00
2023-05-13T07:04:37.055Z,2200.00
2023-05-13T07:05:37.080Z,2276.00
2023-05-13T07:06:37.028Z,2380.00
2023-05-13T07:07:37.017Z,2508.00
2023-05-13T07:08:37.015Z,2512.00
2023-05-13T07:09:36.991Z,2520.00
2023-05-13T07:10:37.117Z,2596.00
2023-05-13T07:11:36.984Z,2676.00
2023-05-13T07:12:36.986Z,2852.00
2023-05-13T07:13:37.764Z,2920.00
2023-05-13T07:14:36.948Z,2812.00
2023-05-13T07:15:36.927Z,2812.00
2023-05-13T07:16:36.936Z,2984.00
2023-05-13T07:17:37.087Z,3044.00
2023-05-13T07:18:36.948Z,3040.00
2023-05-13T07:19:36.900Z,2932.00
2023-05-13T07:20:36.885Z,3104.00
2023-05-13T07:21:36.858Z,3016.00
2023-05-13T07:22:36.872Z,2872.00
2023-05-13T07:23:36.835Z,2740.00
2023-05-13T07:24:36.841Z,2696.00
2023-05-13T07:25:36.837Z,2776.00
2023-05-13T07:26:36.811Z,2672.00
2023-05-13T07:27:36.809Z,2428.00
2023-05-13T07:28:36.789Z,2300.00
2023-05-13T07:29:36.768Z,2300.00
2023-05-13T07:30:36.817Z,2308.00
2023-05-13T07:31:36.801Z,2340.00
2023-05-13T07:32:36.784Z,2344.00
2023-05-13T07:33:36.731Z,2204.00
2023-05-13T07:34:36.726Z,2212.00
2023-05-13T07:35:36.718Z,2176.00
2023-05-13T07:36:36.707Z,2172.00
2023-05-13T07:37:36.686Z,2248.00
2023-05-13T07:38:36.683Z,2204.00
2023-05-13T07:39:36.657Z,2152.00
2023-05-13T07:40:36.681Z,2252.00
2023-05-13T07:41:36.650Z,2100.00
2023-05-13T07:42:36.647Z,2084.00
2023-05-13T07:43:36.622Z,2236.00
2023-05-13T07:44:36.626Z,2392.00
2023-05-13T07:45:36.633Z,2564.00
2023-05-13T07:46:36.623Z,2640.00
2023-05-13T07:47:36.577Z,2620.00
2023-05-13T07:48:36.578Z,2720.00
2023-05-13T07:49:36.561Z,2748.00
2023-05-13T07:50:36.573Z,2612.00
2023-05-13T07:51:36.541Z,2476.00
2023-05-13T07:52:36.533Z,2452.00
2023-05-13T07:53:36.532Z,2548.00
2023-05-13T07:54:36.536Z,2516.00
2023-05-13T07:55:36.522Z,2688.00
2023-05-13T07:56:36.489Z,2716.00
2023-05-13T07:57:36.477Z,2696.00
2023-05-13T07:58:36.475Z,2760.00
2023-05-13T07:59:36.451Z,2808.00
2023-05-13T08:00:36.447Z,3056.00
2023-05-13T08:01:36.431Z,2992.00
2023-05-13T08:02:36.519Z,2956.00
2023-05-13T08:03:36.658Z,3040.00
2023-05-13T08:04:36.418Z,2904.00
2023-05-13T08:05:36.385Z,2772.00
2023-05-13T08:06:37.198Z,2692.00
2023-05-13T08:07:36.388Z,2568.00
2023-05-13T08:08:36.352Z,2588.00
2023-05-13T08:09:36.348Z,2492.00
2023-05-13T08:10:36.334Z,2384.00
2023-05-13T08:11:36.328Z,2392.00
2023-05-13T08:12:36.322Z,2456.00
2023-05-13T08:13:36.299Z,2468.00
2023-05-13T08:14:36.290Z,2596.00
2023-05-13T08:15:36.278Z,2468.00
2023-05-13T08:16:36.366Z,2548.00
2023-05-13T08:17:36.350Z,2552.00
2023-05-13T08:18:36.294Z,2564.00
2023-05-13T08:19:36.269Z,2496.00
2023-05-13T08:20:36.226Z,2420.00
2023-05-13T08:21:36.212Z,2540.00
2023-05-13T08:22:36.219Z,2704.00
2023-05-13T08:23:44.877Z,2752.00
2023-05-13T08:24:37.192Z,2876.00
2023-05-13T08:25:36.172Z,3184.00
2023-05-13T08:26:36.152Z,2880.00
2023-05-13T08:27:36.173Z,2708.00
2023-05-13T08:28:36.136Z,2728.00
2023-05-13T08:29:36.124Z,2688.00
2023-05-13T08:30:36.116Z,2720.00
2023-05-13T08:31:36.139Z,2804.00
2023-05-13T08:32:36.113Z,2692.00
2023-05-13T08:33:36.084Z,2708.00
2023-05-13T08:34:36.075Z,2732.00
2023-05-13T08:35:36.085Z,2656.00
2023-05-13T08:36:36.053Z,2716.00
2023-05-13T08:37:36.053Z,2924.00
2023-05-13T08:38:36.036Z,2812.00
2023-05-13T08:39:36.025Z,2760.00
2023-05-13T08:40:36.014Z,2880.00
2023-05-13T08:41:36.002Z,3032.00
2023-05-13T08:42:35.982Z,3196.00
2023-05-13T08:43:35.973Z,3300.00
2023-05-13T08:44:35.973Z,3268.00
2023-05-13T08:45:35.953Z,3116.00
2023-05-13T08:46:36.022Z,3048.00
2023-05-13T08:47:36.966Z,3016.00
2023-05-13T08:48:35.925Z,2912.00
2023-05-13T08:49:35.912Z,2860.00
2023-05-13T08:50:35.994Z,2756.00
2023-05-13T08:51:35.916Z,2660.00
2023-05-13T08:52:35.873Z,2688.00
2023-05-13T08:53:35.899Z,2688.00
2023-05-13T08:54:35.853Z,2824.00
2023-05-13T08:55:35.850Z,2844.00
2023-05-13T08:56:35.834Z,3028.00
2023-05-13T08:57:35.864Z,3056.00
2023-05-13T08:58:35.812Z,3108.00
2023-05-13T08:59:35.805Z,2980.00
2023-05-13T09:00:35.799Z,2940.00
2023-05-13T09:01:35.866Z,2900.00
2023-05-13T09:02:35.814Z,3040.00
2023-05-13T09:03:35.774Z,3320.00
2023-05-13T09:04:35.773Z,3292.00
2023-05-13T09:05:38.353Z,2980.00
2023-05-13T09:06:35.754Z,3124.00
2023-05-13T09:07:35.722Z,2744.00
2023-05-13T09:08:35.704Z,2608.00
2023-05-13T09:09:35.704Z,2764.00
2023-05-13T09:10:35.683Z,2620.00
2023-05-13T09:11:35.692Z,2736.00
2023-05-13T09:12:35.666Z,2812.00
2023-05-13T09:13:35.672Z,2868.00
2023-05-13T09:14:35.645Z,3024.00
2023-05-13T09:15:35.675Z,3180.00
2023-05-13T09:16:35.696Z,3684.00
2023-05-13T09:17:35.640Z,4160.00
2023-05-13T09:18:35.824Z,4344.00
2023-05-13T09:19:35.720Z,4176.00
2023-05-13T09:20:35.590Z,4580.00
2023-05-13T09:21:35.588Z,4772.00
2023-05-13T09:22:35.557Z,5184.00
2023-05-13T09:23:35.542Z,5636.00
2023-05-13T09:24:35.527Z,5340.00
2023-05-13T09:25:35.517Z,5400.00
2023-05-13T09:26:35.512Z,5192.00
2023-05-13T09:27:35.497Z,5056.00
2023-05-13T09:28:35.479Z,4876.00
2023-05-13T09:29:35.474Z,5432.00
2023-05-13T09:30:35.481Z,6080.00
2023-05-13T09:31:35.498Z,6160.00
2023-05-13T09:32:35.487Z,6164.00
2023-05-13T09:33:35.443Z,6240.00
2023-05-13T09:34:35.416Z,6112.00
2023-05-13T09:35:35.407Z,5788.00
2023-05-13T09:36:35.397Z,6288.00
2023-05-13T09:37:35.388Z,6256.00
2023-05-13T09:38:35.385Z,6208.00
2023-05-13T09:39:35.380Z,6212.00
2023-05-13T09:40:35.362Z,6216.00
2023-05-13T09:41:35.343Z,5520.00
2023-05-13T09:42:35.333Z,5328.00
2023-05-13T09:43:35.327Z,5036.00
2023-05-13T09:44:35.354Z,4092.00
2023-05-13T09:45:35.335Z,4092.00
2023-05-13T09:46:35.325Z,3840.00
2023-05-13T09:47:35.344Z,4076.00
2023-05-13T09:48:35.298Z,4208.00
2023-05-13T09:49:35.257Z,4668.00
2023-05-13T09:50:35.261Z,4872.00
2023-05-13T09:51:35.235Z,4752.00
2023-05-13T09:52:35.239Z,4888.00
2023-05-13T09:53:35.210Z,5024.00
2023-05-13T09:54:35.196Z,4984.00
2023-05-13T09:55:35.222Z,4748.00
2023-05-13T09:56:35.191Z,4956.00
2023-05-13T09:57:35.175Z,5084.00
2023-05-13T09:58:35.154Z,4872.00
2023-05-13T09:59:35.167Z,4492.00
2023-05-13T10:00:37.485Z,4528.00
2023-05-13T10:01:35.191Z,4532.00
2023-05-13T10:02:35.254Z,4432.00
2023-05-13T10:03:35.162Z,4412.00
2023-05-13T10:04:35.097Z,4492.00
2023-05-13T10:05:35.111Z,4156.00
2023-05-13T10:06:35.078Z,4168.00
2023-05-13T10:07:35.059Z,4504.00
2023-05-13T10:08:35.069Z,4620.00
2023-05-13T10:09:35.050Z,4488.00
2023-05-13T10:10:35.026Z,4396.00
2023-05-13T10:11:35.042Z,4348.00
2023-05-13T10:12:35.026Z,4244.00
2023-05-13T10:13:35.001Z,4304.00
2023-05-13T10:14:35.002Z,4072.00
2023-05-13T10:15:34.989Z,3728.00
2023-05-13T10:16:35.088Z,3344.00
2023-05-13T10:17:35.031Z,3240.00
2023-05-13T10:18:34.966Z,3376.00
2023-05-13T10:19:34.931Z,3340.00
2023-05-13T10:20:34.917Z,3232.00
2023-05-13T10:21:34.916Z,2944.00
2023-05-13T10:22:34.910Z,3340.00
2023-05-13T10:23:34.908Z,3600.00
2023-05-13T10:24:37.323Z,3540.00
2023-05-13T10:25:34.880Z,3560.00
2023-05-13T10:26:34.900Z,4396.00
2023-05-13T10:27:34.869Z,5160.00
2023-05-13T10:28:34.832Z,5396.00
2023-05-13T10:29:34.828Z,4400.00
2023-05-13T10:30:34.828Z,4712.00
2023-05-13T10:31:34.855Z,5084.00
2023-05-13T10:32:34.818Z,5076.00
2023-05-13T10:33:34.777Z,4880.00
2023-05-13T10:34:34.768Z,4564.00
2023-05-13T10:35:37.519Z,4636.00
2023-05-13T10:36:34.758Z,4768.00
2023-05-13T10:37:34.740Z,4636.00
2023-05-13T10:38:34.733Z,4184.00
2023-05-13T10:39:34.748Z,3812.00
2023-05-13T10:40:34.722Z,3636.00
2023-05-13T10:41:34.695Z,3316.00
2023-05-13T10:42:34.673Z,3112.00
2023-05-13T10:43:34.693Z,2980.00
2023-05-13T10:44:34.670Z,2824.00
2023-05-13T10:45:34.657Z,2724.00
2023-05-13T10:46:34.679Z,2744.00
2023-05-13T10:47:34.716Z,2896.00
2023-05-13T10:48:34.678Z,3024.00
2023-05-13T10:49:34.714Z,3660.00
2023-05-13T10:50:34.598Z,3824.00
2023-05-13T10:51:34.698Z,3456.00
2023-05-13T10:52:34.568Z,3432.00
2023-05-13T10:53:34.566Z,3444.00
2023-05-13T10:54:34.594Z,3368.00
2023-05-13T10:55:34.566Z,3252.00
2023-05-13T10:56:34.551Z,3112.00
2023-05-13T10:57:34.542Z,3008.00
2023-05-13T10:58:34.550Z,2932.00
2023-05-13T10:59:34.520Z,2832.00
2023-05-13T11:00:34.513Z,2704.00
2023-05-13T11:01:34.505Z,2692.00
2023-05-13T11:02:34.573Z,2684.00
2023-05-13T11:03:34.540Z,2572.00
2023-05-13T11:04:34.515Z,2492.00
2023-05-13T11:05:34.472Z,2428.00
2023-05-13T11:06:34.437Z,2336.00
2023-05-13T11:07:34.427Z,2208.00
2023-05-13T11:08:34.417Z,2196.00
2023-05-13T11:09:34.395Z,2660.00
2023-05-13T11:10:34.375Z,3600.00
2023-05-13T11:11:34.420Z,4268.00
2023-05-13T11:12:34.362Z,5724.00
2023-05-13T11:13:34.350Z,8184.00
2023-05-13T11:14:34.349Z,11140.00
2023-05-13T11:15:34.330Z,11800.00
2023-05-13T11:16:34.383Z,11312.00
2023-05-13T11:17:34.349Z,10732.00
2023-05-13T11:18:34.335Z,9856.00
2023-05-13T11:19:34.289Z,9500.00
2023-05-13T11:20:45.460Z,9088.00
2023-05-13T11:21:35.276Z,7628.00
2023-05-13T11:22:34.266Z,6300.00
2023-05-13T11:23:34.241Z,5360.00
2023-05-13T11:24:34.232Z,4668.00
2023-05-13T11:25:34.311Z,3904.00
2023-05-13T11:26:34.217Z,3444.00
2023-05-13T11:27:34.222Z,3100.00
2023-05-13T11:28:34.200Z,2808.00
2023-05-13T11:29:34.199Z,2592.00
2023-05-13T11:30:34.160Z,2432.00
2023-05-13T11:31:34.193Z,2364.00
2023-05-13T11:32:34.186Z,2384.00
2023-05-13T11:33:34.156Z,2492.00
2023-05-13T11:34:34.138Z,2520.00
2023-05-13T11:35:34.118Z,2368.00
2023-05-13T11:36:34.110Z,2132.00
2023-05-13T11:37:34.088Z,2092.00
2023-05-13T11:38:34.085Z,2196.00
2023-05-13T11:39:34.106Z,2924.00
2023-05-13T11:40:34.069Z,5300.00
2023-05-13T11:41:34.063Z,6620.00
2023-05-13T11:42:34.046Z,7380.00
2023-05-13T11:43:34.776Z,8316.00
2023-05-13T11:44:34.037Z,8432.00
2023-05-13T11:45:34.104Z,8352.00
2023-05-13T11:46:33.991Z,7704.00
2023-05-13T11:47:34.042Z,7428.00
2023-05-13T11:48:33.970Z,7704.00
2023-05-13T11:49:33.974Z,7720.00
2023-05-13T11:50:34.216Z,7944.00
2023-05-13T11:51:33.951Z,8004.00
2023-05-13T11:52:33.946Z,7536.00
2023-05-13T11:53:33.934Z,7140.00
2023-05-13T11:54:33.929Z,6820.00
2023-05-13T11:55:33.918Z,6896.00
2023-05-13T11:56:33.879Z,6908.00
2023-05-13T11:57:33.877Z,6244.00
2023-05-13T11:58:33.867Z,5668.00
2023-05-13T11:59:45.305Z,5168.00
2023-05-13T12:00:34.915Z,4800.00
2023-05-13T12:01:33.831Z,4496.00
2023-05-13T12:02:33.957Z,4200.00
2023-05-13T12:03:33.863Z,3916.00
2023-05-13T12:04:33.860Z,3800.00
2023-05-13T12:05:33.812Z,3796.00
2023-05-13T12:06:33.801Z,3720.00
2023-05-13T12:07:33.794Z,3712.00
2023-05-13T12:08:33.760Z,3720.00
2023-05-13T12:09:33.744Z,3824.00
2023-05-13T12:10:33.735Z,3852.00
2023-05-13T12:11:33.727Z,4012.00
2023-05-13T12:12:33.709Z,4268.00
2023-05-13T12:13:33.700Z,4632.00
2023-05-13T12:14:33.713Z,4780.00
2023-05-13T12:15:33.751Z,4624.00
2023-05-13T12:16:33.765Z,4536.00
2023-05-13T12:17:33.682Z,4668.00
2023-05-13T12:18:33.777Z,4516.00
2023-05-13T12:19:33.639Z,4492.00
2023-05-13T12:20:33.644Z,4448.00
2023-05-13T12:21:33.609Z,4348.00
2023-05-13T12:22:33.627Z,4280.00
2023-05-13T12:23:33.591Z,4304.00
2023-05-13T12:24:33.581Z,4184.00
2023-05-13T12:25:33.589Z,4204.00
2023-05-13T12:26:33.569Z,4148.00
2023-05-13T12:27:33.543Z,4076.00
2023-05-13T12:28:33.552Z,4084.00
2023-05-13T12:29:33.541Z,4040.00
2023-05-13T12:30:33.513Z,4048.00
2023-05-13T12:31:33.562Z,4040.00